Rimini / Miramare - Federico Fellini International Airport LIPR

Flugplatz Daten

Name: Rimini / Miramare - Federico Fellini International Airport

Ident: LIPR

Lat: 44,02030182

Long: 12,61170006

Platzhöhe: 40 ft

IataCode: RMI

City: Rimini

Homepage: http://www.riminiairport.com/english/

Metar

2022/08/13 18:20
LIPR 131820Z AUTO 35008KT 320V020 9999 NCD 25/13 Q1012

Taf

2022/08/13 18:22
TAF LIPR 131700Z 1318/1418 29008KT CAVOK
BECMG 1408/1410 08012KT
BECMG 1416/1418 14010KT
Gewünschte Webcam nicht vorhanden? Dann fügen Sie eine hinzu. Sie wird dann so schnell wie möglich freigeschaltet
Url: Title: